createdAt,value
2017-03-03T00:00:10.937Z,1015.7
2017-03-03T00:01:13.394Z,1015.8
2017-03-03T00:02:16.379Z,1015.8
2017-03-03T00:03:19.108Z,1015.8
2017-03-03T00:04:21.074Z,1015.9
2017-03-03T00:05:24.035Z,1016
2017-03-03T00:06:26.517Z,1015.9
2017-03-03T00:07:28.978Z,1016
2017-03-03T00:08:31.723Z,1016
2017-03-03T00:09:34.020Z,1016
2017-03-03T00:10:36.991Z,1016
2017-03-03T00:11:39.449Z,1016
2017-03-03T00:12:41.935Z,1016
2017-03-03T00:13:44.653Z,1015.9
2017-03-03T00:14:47.116Z,1016
2017-03-03T00:15:49.913Z,1015.9
2017-03-03T00:16:52.370Z,1015.9
2017-03-03T00:17:54.823Z,1015.9
2017-03-03T00:18:57.542Z,1016
2017-03-03T00:20:00.021Z,1016
2017-03-03T00:21:02.483Z,1016
2017-03-03T00:22:04.940Z,1016.2
2017-03-03T00:23:07.942Z,1016.2
2017-03-03T00:24:10.530Z,1016.2
2017-03-03T00:25:13.010Z,1016.2
2017-03-03T00:26:15.480Z,1016.3
2017-03-03T00:27:17.935Z,1016.3
2017-03-03T00:28:20.730Z,1016.3
2017-03-03T00:29:23.436Z,1016.3
2017-03-03T00:30:25.904Z,1016.4
2017-03-03T00:31:28.197Z,1016.3
2017-03-03T00:32:30.654Z,1016.4
2017-03-03T00:33:33.629Z,1016.4
2017-03-03T00:35:39.091Z,1016.3
2017-03-03T00:36:41.052Z,1016.3
2017-03-03T00:37:44.010Z,1016.3
2017-03-03T00:38:46.463Z,1016.4
2017-03-03T00:39:48.915Z,1016.3
2017-03-03T00:40:51.965Z,1016.3
2017-03-03T00:41:53.913Z,1016.3
2017-03-03T00:42:56.869Z,1016.3
2017-03-03T00:43:59.328Z,1016.3
2017-03-03T00:45:01.781Z,1016.3
2017-03-03T00:46:04.490Z,1016.2
2017-03-03T00:47:06.957Z,1016.3
2017-03-03T00:48:09.451Z,1016.2
2017-03-03T00:49:12.239Z,1016.2
2017-03-03T00:50:14.710Z,1016.3
2017-03-03T00:51:17.410Z,1016.3
2017-03-03T00:53:22.272Z,1016.3
2017-03-03T00:54:24.730Z,1016.3
2017-03-03T00:55:27.692Z,1016.3
2017-03-03T00:56:30.408Z,1016.3
2017-03-03T00:57:32.880Z,1016.3
2017-03-03T00:58:35.359Z,1016.3
2017-03-03T00:59:37.844Z,1016.3
2017-03-03T01:00:40.133Z,1016.4
2017-03-03T01:01:43.354Z,1016.4
2017-03-03T01:02:45.310Z,1016.3
2017-03-03T01:03:48.284Z,1016.3
2017-03-03T01:04:50.733Z,1016.3
2017-03-03T01:05:53.192Z,1016.3
2017-03-03T01:06:55.923Z,1016.4
2017-03-03T01:07:58.400Z,1016.3
2017-03-03T01:09:00.880Z,1016.3
2017-03-03T01:10:03.357Z,1016.3
2017-03-03T01:11:06.148Z,1016.3
2017-03-03T01:12:08.857Z,1016.3
2017-03-03T01:13:11.322Z,1016.2
2017-03-03T01:14:13.787Z,1016.3
2017-03-03T01:15:16.282Z,1016.3
2017-03-03T01:16:18.735Z,1016.3
2017-03-03T01:17:21.940Z,1016.2
2017-03-03T01:18:23.891Z,1016.2
2017-03-03T01:19:26.845Z,1016.2
2017-03-03T01:20:29.475Z,1016.3
2017-03-03T01:21:31.788Z,1016.3
2017-03-03T01:22:34.494Z,1016.3
2017-03-03T01:23:36.945Z,1016.3
2017-03-03T01:24:39.395Z,1016.3
2017-03-03T01:25:41.857Z,1016.3
2017-03-03T01:26:44.656Z,1016.3
2017-03-03T01:27:47.379Z,1016.4
2017-03-03T01:28:49.833Z,1016.4
2017-03-03T01:29:52.287Z,1016.4
2017-03-03T01:30:54.765Z,1016.4
2017-03-03T01:31:57.745Z,1016.4
2017-03-03T01:33:00.459Z,1016.3
2017-03-03T01:34:02.410Z,1016.3
2017-03-03T01:35:05.382Z,1016.3
2017-03-03T01:36:07.832Z,1016.3
2017-03-03T01:37:10.622Z,1016.3
2017-03-03T01:38:13.400Z,1016.3
2017-03-03T01:39:15.365Z,1016.3
2017-03-03T01:40:17.837Z,1016.4
2017-03-03T01:41:20.801Z,1016.4
2017-03-03T01:42:23.266Z,1016.4
2017-03-03T01:43:26.011Z,1016.4
2017-03-03T01:44:28.481Z,1016.4
2017-03-03T01:45:30.973Z,1016.4
2017-03-03T01:46:33.454Z,1016.4
2017-03-03T01:47:36.251Z,1016.5
2017-03-03T01:48:38.964Z,1016.5
2017-03-03T01:49:41.428Z,1016.5
2017-03-03T01:50:43.885Z,1016.4
2017-03-03T01:51:46.335Z,1016.5
2017-03-03T01:52:48.793Z,1016.5
2017-03-03T01:53:52.002Z,1016.5
2017-03-03T01:54:53.950Z,1016.5
2017-03-03T01:55:56.420Z,1016.4
2017-03-03T01:56:59.239Z,1016.4
2017-03-03T01:58:01.689Z,1016.4
2017-03-03T01:59:04.406Z,1016.4
2017-03-03T02:00:06.706Z,1016.4
2017-03-03T02:01:09.670Z,1016.4
2017-03-03T02:02:12.131Z,1016.4
2017-03-03T02:03:14.597Z,1016.4
2017-03-03T02:04:17.319Z,1016.3
2017-03-03T02:05:19.783Z,1016.3
2017-03-03T02:06:22.252Z,1016.3
2017-03-03T02:07:24.741Z,1016.4
2017-03-03T02:08:27.707Z,1016.4
2017-03-03T02:09:30.308Z,1016.4
2017-03-03T02:10:32.785Z,1016.3
2017-03-03T02:11:35.075Z,1016.4
2017-03-03T02:12:37.546Z,1016.4
2017-03-03T02:14:43.158Z,1016.3
2017-03-03T02:15:45.611Z,1016.3
2017-03-03T02:16:48.074Z,1016.3
2017-03-03T02:17:50.531Z,1016.3
2017-03-03T02:18:53.326Z,1016.3
2017-03-03T02:19:55.863Z,1016.3
2017-03-03T02:20:58.161Z,1016.3
2017-03-03T02:22:00.649Z,1016.3
2017-03-03T02:23:03.447Z,1016.3
2017-03-03T02:24:05.906Z,1016.4
2017-03-03T02:25:08.623Z,1016.4
2017-03-03T02:26:11.078Z,1016.3
2017-03-03T02:27:13.549Z,1016.4
2017-03-03T02:28:16.512Z,1016.4
2017-03-03T02:29:18.983Z,1016.3
2017-03-03T02:30:21.725Z,1016.3
2017-03-03T02:31:24.217Z,1016.3
2017-03-03T02:32:26.703Z,1016.3
2017-03-03T02:33:29.159Z,1016.3
2017-03-03T02:34:31.630Z,1016.3
2017-03-03T02:35:34.401Z,1016.3
2017-03-03T02:36:36.870Z,1016.3
2017-03-03T02:37:39.341Z,1016.3
2017-03-03T02:38:41.795Z,1016.2
2017-03-03T02:39:44.752Z,1016.3
2017-03-03T02:40:47.465Z,1016.3
2017-03-03T02:41:49.915Z,1016.2
2017-03-03T02:42:52.365Z,1016.2
2017-03-03T02:43:54.651Z,1016.2
2017-03-03T02:44:57.607Z,1016.2
2017-03-03T02:46:00.371Z,1016.2
2017-03-03T02:47:02.330Z,1016.2
2017-03-03T02:48:05.298Z,1016.2
2017-03-03T02:49:07.752Z,1016.2
2017-03-03T02:50:10.250Z,1016.2
2017-03-03T02:51:13.005Z,1016.2
2017-03-03T02:52:15.459Z,1016.2
2017-03-03T02:53:17.909Z,1016.2
2017-03-03T02:54:20.700Z,1016.2
2017-03-03T02:55:23.161Z,1016
2017-03-03T02:56:25.772Z,1016
2017-03-03T02:57:28.250Z,1016.2
2017-03-03T02:58:30.701Z,1016
2017-03-03T02:59:33.153Z,1016
2017-03-03T03:00:36.111Z,1016.2
2017-03-03T03:01:38.713Z,1016.2
2017-03-03T03:02:41.001Z,1016.2
2017-03-03T03:03:43.472Z,1016.2
2017-03-03T03:04:46.313Z,1016.2
2017-03-03T03:05:48.764Z,1016.2
2017-03-03T03:06:51.313Z,1016.2
2017-03-03T03:07:53.773Z,1016.2
2017-03-03T03:08:56.246Z,1016.2
2017-03-03T03:09:59.206Z,1016.2
2017-03-03T03:11:01.674Z,1016.2
2017-03-03T03:12:04.422Z,1016.2
2017-03-03T03:13:06.738Z,1016.3
2017-03-03T03:14:09.190Z,1016.3
2017-03-03T03:15:11.975Z,1016.3
2017-03-03T03:16:14.436Z,1016.3
2017-03-03T03:17:17.138Z,1016.3
2017-03-03T03:18:19.595Z,1016.3
2017-03-03T03:19:21.890Z,1016.2
2017-03-03T03:20:24.683Z,1016.2
2017-03-03T03:21:27.131Z,1016.2
2017-03-03T03:22:29.856Z,1016.2
2017-03-03T03:23:32.308Z,1016.2
2017-03-03T03:24:34.774Z,1016.2
2017-03-03T03:25:37.738Z,1016.2
2017-03-03T03:26:40.191Z,1016.2
2017-03-03T03:27:42.948Z,1016.2
2017-03-03T03:28:45.412Z,1016.2
2017-03-03T03:29:47.887Z,1016.2
2017-03-03T03:30:50.172Z,1016.3
2017-03-03T03:31:53.137Z,1016.3
2017-03-03T03:32:55.913Z,1016.3
2017-03-03T03:33:58.089Z,1016.3
2017-03-03T03:35:00.604Z,1016.3
2017-03-03T03:36:03.122Z,1016.2
2017-03-03T03:37:05.637Z,1016.2
2017-03-03T03:39:11.306Z,1016.3
2017-03-03T03:40:13.303Z,1016.3
2017-03-03T03:41:15.801Z,1016.3
2017-03-03T03:42:18.803Z,1016.2
2017-03-03T03:43:21.316Z,1016.3
2017-03-03T03:44:24.081Z,1016.3
2017-03-03T03:45:26.082Z,1016.2
2017-03-03T03:46:28.583Z,1016.2
2017-03-03T03:47:31.592Z,1016.2
2017-03-03T03:48:34.096Z,1016.2
2017-03-03T03:49:36.903Z,1016.2
2017-03-03T03:50:38.902Z,1016
2017-03-03T03:51:41.407Z,1016
2017-03-03T03:52:44.421Z,1016
2017-03-03T03:53:46.934Z,1016
2017-03-03T03:54:49.751Z,1016
2017-03-03T03:55:51.761Z,1016
2017-03-03T03:56:54.266Z,1016.2
2017-03-03T03:57:57.098Z,1016
2017-03-03T03:58:59.432Z,1016
2017-03-03T04:00:02.296Z,1016
2017-03-03T04:01:04.801Z,1016
2017-03-03T04:02:07.328Z,1016
2017-03-03T04:03:09.891Z,1015.9
2017-03-03T04:04:12.400Z,1015.9
2017-03-03T04:05:15.212Z,1015.9
2017-03-03T04:07:20.125Z,1015.8
2017-03-03T04:08:22.637Z,1015.9
2017-03-03T04:09:25.151Z,1015.9
2017-03-03T04:10:27.963Z,1015.9
2017-03-03T04:11:30.501Z,1015.9
2017-03-03T04:12:33.099Z,1016
2017-03-03T04:13:35.637Z,1015.9
2017-03-03T04:14:38.202Z,1015.9
2017-03-03T04:15:40.872Z,1016
2017-03-03T04:16:43.372Z,1015.9
2017-03-03T04:17:45.873Z,1015.9
2017-03-03T04:18:48.376Z,1015.9
2017-03-03T04:19:50.916Z,1015.9
2017-03-03T04:20:53.731Z,1015.8
2017-03-03T04:21:55.745Z,1015.9
2017-03-03T04:22:58.271Z,1015.9
2017-03-03T04:24:01.293Z,1015.9
2017-03-03T04:25:03.829Z,1015.9
2017-03-03T04:26:06.644Z,1015.9
2017-03-03T04:27:08.645Z,1015.8
2017-03-03T04:28:11.149Z,1015.8
2017-03-03T04:29:13.652Z,1015.8
2017-03-03T04:30:16.500Z,1015.8
2017-03-03T04:31:19.286Z,1015.8
2017-03-03T04:32:21.335Z,1015.7
2017-03-03T04:33:24.175Z,1015.7
2017-03-03T04:34:26.704Z,1015.7
2017-03-03T04:35:29.242Z,1015.7
2017-03-03T04:36:32.004Z,1015.7
2017-03-03T04:37:34.342Z,1015.7
2017-03-03T04:38:36.854Z,1015.7
2017-03-03T04:39:39.363Z,1015.7
2017-03-03T04:40:41.868Z,1015.6
2017-03-03T04:41:44.689Z,1015.7
2017-03-03T04:42:47.199Z,1015.7
2017-03-03T04:43:49.708Z,1015.6
2017-03-03T04:44:52.224Z,1015.6
2017-03-03T04:45:54.732Z,1015.6
2017-03-03T04:46:57.536Z,1015.6
2017-03-03T04:48:00.048Z,1015.6
2017-03-03T04:49:02.550Z,1015.6
2017-03-03T04:50:05.059Z,1015.6
2017-03-03T04:52:10.436Z,1015.6
2017-03-03T04:53:12.933Z,1015.6
2017-03-03T04:54:15.471Z,1015.6
2017-03-03T04:55:17.972Z,1015.5
2017-03-03T04:56:20.487Z,1015.5
2017-03-03T04:57:23.244Z,1015.5
2017-03-03T04:58:25.266Z,1015.5
2017-03-03T04:59:28.275Z,1015.5
2017-03-03T05:00:30.799Z,1015.6
2017-03-03T05:02:35.963Z,1015.5
2017-03-03T05:03:38.297Z,1015.6
2017-03-03T05:04:40.811Z,1015.5
2017-03-03T05:05:43.373Z,1015.5
2017-03-03T05:06:45.888Z,1015.5
2017-03-03T05:07:48.695Z,1015.5
2017-03-03T05:08:51.208Z,1015.5
2017-03-03T05:09:53.771Z,1015.5
2017-03-03T05:10:56.273Z,1015.5
2017-03-03T05:11:58.779Z,1015.6
2017-03-03T05:13:01.535Z,1015.5
2017-03-03T05:14:03.871Z,1015.5
2017-03-03T05:15:06.375Z,1015.5
2017-03-03T05:16:08.879Z,1015.5
2017-03-03T05:17:11.392Z,1015.5
2017-03-03T05:18:14.147Z,1015.5
2017-03-03T05:19:16.645Z,1015.5
2017-03-03T05:20:19.152Z,1015.5
2017-03-03T05:21:21.690Z,1015.4
2017-03-03T05:22:24.216Z,1015.4
2017-03-03T05:23:26.973Z,1015.4
2017-03-03T05:24:29.476Z,1015.4
2017-03-03T05:25:31.821Z,1015.4
2017-03-03T05:26:34.670Z,1015.3
2017-03-03T05:27:37.178Z,1015.4
2017-03-03T05:28:39.818Z,1015.4
2017-03-03T05:29:42.369Z,1015.4
2017-03-03T05:30:44.923Z,1015.4
2017-03-03T05:31:47.480Z,1015.5
2017-03-03T05:32:49.825Z,1015.5
2017-03-03T05:33:52.588Z,1015.5
2017-03-03T05:34:55.119Z,1015.4
2017-03-03T05:35:57.644Z,1015.4
2017-03-03T05:37:00.151Z,1015.4
2017-03-03T05:38:02.702Z,1015.4
2017-03-03T05:39:05.518Z,1015.4
2017-03-03T05:40:07.516Z,1015.4
2017-03-03T05:41:10.031Z,1015.3
2017-03-03T05:42:13.046Z,1015.3
2017-03-03T05:44:18.233Z,1015.3
2017-03-03T05:45:20.236Z,1015.3
2017-03-03T05:46:23.244Z,1015.3
2017-03-03T05:47:25.754Z,1015.2
2017-03-03T05:48:28.099Z,1015.2
2017-03-03T05:49:30.873Z,1015.2
2017-03-03T05:50:33.380Z,1015.3
2017-03-03T05:51:35.891Z,1015.3
2017-03-03T05:52:38.227Z,1015.2
2017-03-03T05:53:40.762Z,1015.3
2017-03-03T05:54:43.566Z,1015.3
2017-03-03T05:55:45.919Z,1015.3
2017-03-03T05:56:48.425Z,1015.3
2017-03-03T05:57:50.939Z,1015.3
2017-03-03T05:58:53.493Z,1015.3
2017-03-03T05:59:56.306Z,1015.4
2017-03-03T06:00:58.827Z,1015.3
2017-03-03T06:02:01.377Z,1015.3
2017-03-03T06:03:03.899Z,1015.4
2017-03-03T06:04:06.417Z,1015.3
2017-03-03T06:05:09.191Z,1015.4
2017-03-03T06:06:11.699Z,1015.4
2017-03-03T06:07:14.243Z,1015.4
2017-03-03T06:08:16.746Z,1015.4
2017-03-03T06:09:19.284Z,1015.4
2017-03-03T06:10:22.087Z,1015.3
2017-03-03T06:11:24.505Z,1015.4
2017-03-03T06:12:27.018Z,1015.3
2017-03-03T06:13:29.520Z,1015.4
2017-03-03T06:14:32.063Z,1015.4
2017-03-03T06:15:34.870Z,1015.4
2017-03-03T06:16:36.869Z,1015.4
2017-03-03T06:17:39.580Z,1015.3
2017-03-03T06:18:42.082Z,1015.3
2017-03-03T06:19:44.620Z,1015.3
2017-03-03T06:20:47.436Z,1015.4
2017-03-03T06:21:49.803Z,1015.3
2017-03-03T06:22:52.306Z,1015.3
2017-03-03T06:23:54.825Z,1015.3
2017-03-03T06:24:57.334Z,1015.3
2017-03-03T06:26:00.096Z,1015.3
2017-03-03T06:27:02.595Z,1015.3
2017-03-03T06:28:05.137Z,1015.3
2017-03-03T06:29:07.494Z,1015.3
2017-03-03T06:30:10.017Z,1015.3
2017-03-03T06:31:13.164Z,1015.3
2017-03-03T06:32:15.181Z,1015.3
2017-03-03T06:33:17.690Z,1015.3
2017-03-03T06:34:20.708Z,1015.4
2017-03-03T06:35:23.221Z,1015.4
2017-03-03T06:36:25.996Z,1015.4
2017-03-03T06:37:28.059Z,1015.5
2017-03-03T06:38:30.565Z,1015.4
2017-03-03T06:39:33.091Z,1015.4
2017-03-03T06:40:35.648Z,1015.4
2017-03-03T06:41:38.797Z,1015.4
2017-03-03T06:42:40.810Z,1015.4
2017-03-03T06:43:43.363Z,1015.4
2017-03-03T06:44:45.876Z,1015.5
2017-03-03T06:45:48.390Z,1015.5
2017-03-03T06:46:51.710Z,1015.5
2017-03-03T06:47:53.709Z,1015.5
2017-03-03T06:48:56.221Z,1015.4
2017-03-03T06:49:58.739Z,1015.5
2017-03-03T06:51:01.250Z,1015.5
2017-03-03T06:52:04.061Z,1015.5
2017-03-03T06:53:06.567Z,1015.4
2017-03-03T06:54:09.072Z,1015.5
2017-03-03T06:56:13.979Z,1015.5
2017-03-03T06:57:17.293Z,1015.5
2017-03-03T06:58:19.151Z,1015.5
2017-03-03T06:59:22.003Z,1015.5
2017-03-03T07:00:24.521Z,1015.5
2017-03-03T07:01:27.033Z,1015.5
2017-03-03T07:02:29.673Z,1015.5
2017-03-03T07:03:32.005Z,1015.5
2017-03-03T07:04:34.507Z,1015.5
2017-03-03T07:05:37.347Z,1015.5
2017-03-03T07:06:39.913Z,1015.5
2017-03-03T07:07:42.665Z,1015.5
2017-03-03T07:08:45.165Z,1015.5
2017-03-03T07:09:47.680Z,1015.4
2017-03-03T07:10:50.228Z,1015.4
2017-03-03T07:11:52.759Z,1015.4
2017-03-03T07:12:55.549Z,1015.4
2017-03-03T07:13:57.556Z,1015.4
2017-03-03T07:15:00.578Z,1015.4
2017-03-03T07:16:03.086Z,1015.4
2017-03-03T07:17:05.599Z,1015.4
2017-03-03T07:18:08.350Z,1015.4
2017-03-03T07:19:10.849Z,1015.4
2017-03-03T07:20:13.354Z,1015.3
2017-03-03T07:21:15.872Z,1015.4
2017-03-03T07:22:18.205Z,1015.4
2017-03-03T07:23:21.296Z,1015.4
2017-03-03T07:24:23.300Z,1015.3
2017-03-03T07:25:26.178Z,1015.3
2017-03-03T07:26:28.517Z,1015.3
2017-03-03T07:26:58.835Z,1015.3
2017-03-03T07:27:31.476Z,1015.4
2017-03-03T07:28:34.239Z,1015.3
2017-03-03T07:29:36.260Z,1015.3
2017-03-03T07:30:39.121Z,1015.3
2017-03-03T07:31:41.649Z,1015.3
2017-03-03T07:32:44.165Z,1015.2
2017-03-03T07:33:46.916Z,1015.3
2017-03-03T07:34:49.443Z,1015.3
2017-03-03T07:35:51.950Z,1015.3
2017-03-03T07:36:54.450Z,1015.3
2017-03-03T07:38:59.994Z,1015.2
2017-03-03T07:40:02.031Z,1015.2
2017-03-03T07:41:04.542Z,1015.2
2017-03-03T07:42:07.546Z,1015.2
2017-03-03T07:43:10.048Z,1015.2
2017-03-03T07:44:12.875Z,1015.3
2017-03-03T07:45:15.208Z,1015.2
2017-03-03T07:46:17.722Z,1015.2
2017-03-03T07:47:20.285Z,1015.2
2017-03-03T07:48:22.785Z,1015.2
2017-03-03T07:49:25.601Z,1015.2
2017-03-03T07:50:28.110Z,1015.1
2017-03-03T07:51:30.632Z,1015.1
2017-03-03T07:53:35.539Z,1015.1
2017-03-03T07:54:38.676Z,1015.1
2017-03-03T07:55:40.694Z,1015.1
2017-03-03T07:56:43.264Z,1015
2017-03-03T07:57:45.770Z,1015
2017-03-03T07:58:48.607Z,1015
2017-03-03T07:59:51.215Z,1015
2017-03-03T08:00:53.735Z,1015
2017-03-03T08:01:56.291Z,1015
2017-03-03T08:02:58.806Z,1015
2017-03-03T08:04:01.651Z,1015
2017-03-03T08:05:04.469Z,1015
2017-03-03T08:06:06.475Z,1014.9
2017-03-03T08:07:09.323Z,1015
2017-03-03T08:08:11.671Z,1014.9
2017-03-03T08:09:14.567Z,1014.9
2017-03-03T08:10:17.160Z,1015
2017-03-03T08:11:19.681Z,1015
2017-03-03T08:12:22.189Z,1015
2017-03-03T08:14:27.441Z,1014.9
2017-03-03T08:15:30.205Z,1014.9
2017-03-03T08:16:32.562Z,1014.9
2017-03-03T08:17:34.894Z,1014.9
2017-03-03T08:18:37.397Z,1014.8
2017-03-03T08:19:39.899Z,1014.8
2017-03-03T08:21:45.652Z,1014.8
2017-03-03T08:22:47.659Z,1014.7
2017-03-03T08:23:50.671Z,1014.7
2017-03-03T08:24:53.182Z,1014.7
2017-03-03T08:25:55.735Z,1014.7
2017-03-03T08:26:58.575Z,1014.7
2017-03-03T08:28:00.578Z,1014.7
2017-03-03T08:29:03.095Z,1014.8
2017-03-03T08:29:33.399Z,1014.8
2017-03-03T08:30:05.716Z,1014.7
2017-03-03T08:31:08.577Z,1014.7
2017-03-03T08:32:11.384Z,1014.7
2017-03-03T08:33:13.906Z,1014.7
2017-03-03T08:34:16.444Z,1014.7
2017-03-03T08:35:18.952Z,1014.7
2017-03-03T08:36:21.285Z,1014.7
2017-03-03T08:37:24.109Z,1014.7
2017-03-03T08:38:26.624Z,1014.7
2017-03-03T08:39:29.144Z,1014.6
2017-03-03T08:40:31.666Z,1014.6
2017-03-03T08:41:34.175Z,1014.6
2017-03-03T08:42:36.933Z,1014.6
2017-03-03T08:43:39.282Z,1014.5
2017-03-03T08:44:41.853Z,1014.5
2017-03-03T08:45:44.869Z,1014.5
2017-03-03T08:46:47.279Z,1014.5
2017-03-03T08:47:50.036Z,1014.5
2017-03-03T08:48:52.394Z,1014.5
2017-03-03T08:49:54.953Z,1014.5
2017-03-03T08:50:57.498Z,1014.5
2017-03-03T08:52:00.019Z,1014.5
2017-03-03T08:53:03.343Z,1014.5
2017-03-03T08:54:05.360Z,1014.6
2017-03-03T08:55:08.240Z,1014.5
2017-03-03T08:56:10.763Z,1014.5
2017-03-03T08:57:13.269Z,1014.5
2017-03-03T08:58:15.864Z,1014.4
2017-03-03T08:59:18.367Z,1014.4
2017-03-03T09:00:20.884Z,1014.5
2017-03-03T09:01:23.424Z,1014.4
2017-03-03T09:02:25.924Z,1014.4
2017-03-03T09:04:31.652Z,1014.4
2017-03-03T09:05:34.168Z,1014.3
2017-03-03T09:06:36.671Z,1014.3
2017-03-03T09:07:39.197Z,1014.3
2017-03-03T09:08:41.553Z,1014.2
2017-03-03T09:09:44.873Z,1014.2
2017-03-03T09:10:46.883Z,1014.2
2017-03-03T09:11:49.428Z,1014.2
2017-03-03T09:12:51.934Z,1014.2
2017-03-03T09:13:54.939Z,1014.2
2017-03-03T09:14:57.729Z,1014.1
2017-03-03T09:15:59.744Z,1014.2
2017-03-03T09:17:02.757Z,1014.1
2017-03-03T09:18:05.267Z,1014.2
2017-03-03T09:19:07.773Z,1014.2
2017-03-03T09:20:10.534Z,1014.2
2017-03-03T09:21:13.037Z,1014.2
2017-03-03T09:22:15.710Z,1014.2
2017-03-03T09:23:18.292Z,1014.2
2017-03-03T09:24:20.625Z,1014.1
2017-03-03T09:25:23.374Z,1014.1
2017-03-03T09:26:25.875Z,1014
2017-03-03T09:27:28.401Z,1014
2017-03-03T09:28:31.095Z,1014
2017-03-03T09:29:33.606Z,1013.9
2017-03-03T09:30:36.766Z,1013.9
2017-03-03T09:31:38.772Z,1013.8
2017-03-03T09:32:41.274Z,1013.8
2017-03-03T09:33:44.338Z,1013.7
2017-03-03T09:34:46.848Z,1013.8
2017-03-03T09:35:49.605Z,1013.8
2017-03-03T09:36:51.945Z,1013.8
2017-03-03T09:37:54.445Z,1013.8
2017-03-03T09:38:56.952Z,1013.9
2017-03-03T09:39:59.789Z,1013.9
2017-03-03T09:41:02.380Z,1013.9
2017-03-03T09:42:04.902Z,1013.8
2017-03-03T09:43:07.409Z,1013.9
2017-03-03T09:44:09.905Z,1013.9
2017-03-03T09:45:12.922Z,1013.8
2017-03-03T09:47:18.151Z,1013.8
2017-03-03T09:48:20.669Z,1013.8
2017-03-03T09:50:25.637Z,1013.8
2017-03-03T09:51:28.499Z,1013.8
2017-03-03T09:52:31.112Z,1013.8
2017-03-03T09:53:33.618Z,1013.8
2017-03-03T09:54:35.952Z,1013.8
2017-03-03T09:55:38.997Z,1013.8
2017-03-03T09:56:41.328Z,1013.8
2017-03-03T09:57:44.491Z,1013.8
2017-03-03T09:58:46.321Z,1013.8
2017-03-03T09:59:49.396Z,1013.8
2017-03-03T10:00:51.910Z,1013.8
2017-03-03T10:01:54.436Z,1013.7
2017-03-03T10:02:57.240Z,1013.8
2017-03-03T10:03:59.752Z,1013.7
2017-03-03T10:05:02.261Z,1013.8
2017-03-03T10:06:04.612Z,1013.7
2017-03-03T10:07:07.451Z,1013.7
2017-03-03T10:08:10.081Z,1013.6
2017-03-03T10:09:12.588Z,1013.5
2017-03-03T10:10:15.097Z,1013.5
2017-03-03T10:11:17.611Z,1013.5
2017-03-03T10:12:20.675Z,1013.4
2017-03-03T10:13:23.315Z,1013.5
2017-03-03T10:14:25.823Z,1013.5
2017-03-03T10:15:28.337Z,1013.5
2017-03-03T10:16:30.842Z,1013.4
2017-03-03T10:17:33.511Z,1013.4
2017-03-03T10:18:36.288Z,1013.4
2017-03-03T10:19:38.798Z,1013.5
2017-03-03T10:20:41.316Z,1013.5
2017-03-03T10:21:43.821Z,1013.5
2017-03-03T10:22:46.347Z,1013.5
2017-03-03T10:23:49.658Z,1013.4
2017-03-03T10:24:51.666Z,1013.4
2017-03-03T10:25:54.178Z,1013.4
2017-03-03T10:26:57.227Z,1013.4
2017-03-03T10:27:59.764Z,1013.4
2017-03-03T10:29:02.394Z,1013.3
2017-03-03T10:30:04.909Z,1013.3
2017-03-03T10:31:07.431Z,1013.3
2017-03-03T10:32:09.944Z,1013.2
2017-03-03T10:33:12.780Z,1013.2
2017-03-03T10:34:15.546Z,1013.2
2017-03-03T10:35:17.891Z,1013.2
2017-03-03T10:36:20.239Z,1013.2
2017-03-03T10:37:23.240Z,1013.1
2017-03-03T10:38:25.743Z,1013.2
2017-03-03T10:39:28.497Z,1013.2
2017-03-03T10:40:30.995Z,1013.1
2017-03-03T10:41:33.332Z,1013.2
2017-03-03T10:42:36.178Z,1013.1
2017-03-03T10:43:38.677Z,1013.1
2017-03-03T10:44:41.500Z,1013.1
2017-03-03T10:45:44.015Z,1013.1
2017-03-03T10:46:46.528Z,1013.1
2017-03-03T10:47:49.379Z,1013.1
2017-03-03T10:48:51.735Z,1013
2017-03-03T10:49:54.540Z,1013
2017-03-03T10:51:59.460Z,1013
2017-03-03T10:53:02.475Z,1012.9
2017-03-03T10:54:04.980Z,1013
2017-03-03T10:55:07.795Z,1012.9
2017-03-03T10:56:10.341Z,1012.8
2017-03-03T10:57:12.847Z,1012.9
2017-03-03T10:58:15.343Z,1012.9
2017-03-03T10:59:17.858Z,1012.9
2017-03-03T11:00:20.648Z,1012.9
2017-03-03T11:01:23.149Z,1012.9
2017-03-03T11:02:25.986Z,1012.8
2017-03-03T11:03:28.488Z,1012.8
2017-03-03T11:04:30.998Z,1012.9
2017-03-03T11:05:33.824Z,1012.8
2017-03-03T11:06:36.340Z,1012.7
2017-03-03T11:07:39.174Z,1012.7
2017-03-03T11:08:41.673Z,1012.7
2017-03-03T11:09:44.182Z,1012.7
2017-03-03T11:10:46.939Z,1012.6
2017-03-03T11:12:51.851Z,1012.6
2017-03-03T11:13:54.883Z,1012.6
2017-03-03T11:14:57.422Z,1012.6
2017-03-03T11:16:00.247Z,1012.5
2017-03-03T11:17:02.667Z,1012.5
2017-03-03T11:18:05.004Z,1012.5
2017-03-03T11:19:08.009Z,1012.5
2017-03-03T11:20:10.518Z,1012.4
2017-03-03T11:21:13.283Z,1012.4
2017-03-03T11:22:15.640Z,1012.4
2017-03-03T11:23:18.191Z,1012.4
2017-03-03T11:24:20.708Z,1012.4
2017-03-03T11:25:23.717Z,1012.4
2017-03-03T11:26:26.522Z,1012.4
2017-03-03T11:27:28.853Z,1012.4
2017-03-03T11:28:31.360Z,1012.3
2017-03-03T11:29:33.861Z,1012.2
2017-03-03T11:30:36.383Z,1012.2
2017-03-03T11:31:39.647Z,1012.2
2017-03-03T11:32:41.648Z,1012.2
2017-03-03T11:33:44.676Z,1012.2
2017-03-03T11:34:47.187Z,1012.2
2017-03-03T11:35:49.684Z,1012.1
2017-03-03T11:36:52.445Z,1012.1
2017-03-03T11:37:54.948Z,1012.1
2017-03-03T11:38:57.797Z,1012
2017-03-03T11:40:00.313Z,1012
2017-03-03T11:41:02.816Z,1012
2017-03-03T11:42:05.581Z,1011.9
2017-03-03T11:43:08.085Z,1011.9
2017-03-03T11:44:10.606Z,1011.8
2017-03-03T11:45:13.131Z,1011.8
2017-03-03T11:46:16.141Z,1011.9
2017-03-03T11:47:18.894Z,1011.9
2017-03-03T11:48:21.228Z,1011.8
2017-03-03T11:49:23.730Z,1011.8
2017-03-03T11:50:26.244Z,1011.7
2017-03-03T11:51:29.248Z,1011.7
2017-03-03T11:52:32.018Z,1011.7
2017-03-03T11:53:34.363Z,1011.7
2017-03-03T11:54:36.865Z,1011.7
2017-03-03T11:55:39.371Z,1011.7
2017-03-03T11:56:42.380Z,1011.6
2017-03-03T11:57:45.149Z,1011.6
2017-03-03T11:58:47.653Z,1011.6
2017-03-03T11:59:50.189Z,1011.6
2017-03-03T12:00:52.724Z,1011.5
2017-03-03T12:01:55.245Z,1011.5
2017-03-03T12:02:58.506Z,1011.5
2017-03-03T12:04:00.530Z,1011.5
2017-03-03T12:05:03.043Z,1011.5
2017-03-03T12:06:06.072Z,1011.5
2017-03-03T12:07:08.746Z,1011.5
2017-03-03T12:09:13.967Z,1011.3
2017-03-03T12:10:16.476Z,1011.3
2017-03-03T12:11:18.989Z,1011.3
2017-03-03T12:12:21.826Z,1011.4
2017-03-03T12:13:24.173Z,1011.3
2017-03-03T12:14:27.283Z,1011.3
2017-03-03T12:15:29.788Z,1011.3
2017-03-03T12:16:32.206Z,1011.3
2017-03-03T12:17:34.736Z,1011.3
2017-03-03T12:18:37.257Z,1011.3
2017-03-03T12:19:40.577Z,1011.3
2017-03-03T12:20:42.592Z,1011.3
2017-03-03T12:21:45.607Z,1011.3
2017-03-03T12:22:48.106Z,1011.4
2017-03-03T12:23:50.439Z,1011.4
2017-03-03T12:24:53.589Z,1011.4
2017-03-03T12:25:56.100Z,1011.3
2017-03-03T12:26:58.441Z,1011.3
2017-03-03T12:28:00.952Z,1011.2
2017-03-03T12:29:04.009Z,1011.1
2017-03-03T12:30:06.761Z,1011.1
2017-03-03T12:31:09.097Z,1011
2017-03-03T12:32:11.615Z,1011
2017-03-03T12:33:14.623Z,1011
2017-03-03T12:34:17.128Z,1011
2017-03-03T12:35:19.889Z,1011.1
2017-03-03T12:36:22.397Z,1011
2017-03-03T12:37:24.906Z,1011
2017-03-03T12:38:27.742Z,1010.9
2017-03-03T12:39:30.253Z,1010.9
2017-03-03T12:40:33.014Z,1010.9
2017-03-03T12:41:35.561Z,1010.9
2017-03-03T12:42:38.078Z,1010.9
2017-03-03T12:43:40.595Z,1010.9
2017-03-03T12:44:43.596Z,1010.8
2017-03-03T12:45:46.366Z,1010.7
2017-03-03T12:46:48.877Z,1010.8
2017-03-03T12:47:51.217Z,1010.8
2017-03-03T12:48:54.222Z,1010.7
2017-03-03T12:49:56.731Z,1010.7
2017-03-03T12:50:59.311Z,1010.7
2017-03-03T12:52:02.170Z,1010.6
2017-03-03T12:53:04.679Z,1010.6
2017-03-03T12:54:07.024Z,1010.6
2017-03-03T12:55:09.691Z,1010.6
2017-03-03T12:56:12.947Z,1010.6
2017-03-03T12:57:14.960Z,1010.6
2017-03-03T12:58:17.973Z,1010.6
2017-03-03T12:59:20.523Z,1010.5
2017-03-03T13:00:23.068Z,1010.5
2017-03-03T13:01:25.885Z,1010.4
2017-03-03T13:02:28.410Z,1010.4
2017-03-03T13:03:30.928Z,1010.4
2017-03-03T13:04:33.436Z,1010.4
2017-03-03T13:05:36.442Z,1010.4
2017-03-03T13:06:39.246Z,1010.4
2017-03-03T13:07:41.768Z,1010.4
2017-03-03T13:08:44.324Z,1010.3
2017-03-03T13:09:46.839Z,1010.3
2017-03-03T13:10:49.364Z,1010.3
2017-03-03T13:11:52.704Z,1010.2
2017-03-03T13:12:54.697Z,1010.2
2017-03-03T13:13:57.216Z,1010.2
2017-03-03T13:15:00.224Z,1010.2
2017-03-03T13:16:02.742Z,1010.1
2017-03-03T13:17:05.880Z,1010.1
2017-03-03T13:18:07.878Z,1010.1
2017-03-03T13:19:10.912Z,1009.9
2017-03-03T13:20:13.412Z,1009.9
2017-03-03T13:21:15.949Z,1009.8
2017-03-03T13:22:18.711Z,1009.9